Oak Ridge, TN (37830)

3:30 PM EDT on May 25, 2015 (GMT -0400)
Eyman Osage Rd | | Change Station
CLOSE
Current Station
Personal Weather Station
Location: Oak Ridge, TN
Elevation: 1109 ft
Nearby Weather Stations

Elev 1109 ft 36.03 °N, 84.26 °W | Updated 6 minutes ago

Mostly Cloudy
Mostly Cloudy
84.6 °F
Feels Like 87 °F
N
6.3
Wind Variable Wind from NE

Today
High -- | Low -- °F
--% Chance of Precip.
Yesterday
High -- | Low -- °F
Precip. -- in
6:24 AM 8:43 PM
Waxing Crescent, 51% visible
Pressure 30.18 in
Visibility 10.0 miles
Clouds Mostly Cloudy 6000 ft
Heat Index 87 °F
Dew Point 67 °F
Humidity 56%
Rainfall 0.00 in
Snow Depth Not available.
UV 6 out of 12
Pollen 6.70 out of 12
Air Quality Not available.
Flu Activity Sporadic
METAR KOQT 251853Z AUTO 21007G15KT 10SM BKN060 28/16 A3022 RMK AO2 SLP219 T02830156

More Conditions Fewer Conditions

Pressure 30.18 in
Visibility 10.0 miles
Clouds Mostly Cloudy 6000 ft
Heat Index 87 °F
Dew Point 67 °F
Humidity 56%
Rainfall 0.00 in
Snow Depth Not available.
UV 6 out of 12
Pollen 6.70 out of 12
Air Quality Not available.
Flu Activity Sporadic
METAR KOQT 251853Z AUTO 21007G15KT 10SM BKN060 28/16 A3022 RMK AO2 SLP219 T02830156

More Conditions Fewer Conditions

10-Day Weather Forecast

Almanac

Astronomy

May. 25, 2015 Rise Set
Actual Time
Civil Twilight
Nautical Twilight
Astronomical Twilight
Moon
Length of Visible Light
Length of Day
Tomorrow will be .
, % of the Moon is Illuminated

Today's Extremes

State Highs State Lows

Community

WunderPhotos

Upload Photos

1,824,100 photos uploaded!

WunderBlogs® & News

Nearby

Air Quality

  Air Quality AQ Index Pollutant
Not available.

Snow Depth

Station Depth Elevation

Earthquake Activity

City Distance Mag. Time & Date
Minimum magnitude displayed is 2.5.

Coastal Water Temperatures

Place Temperature

Stations

Nearby Weather Stations

Station Location Temp. Windchill Dew Point Humidity Wind Precip. Elev Updated Type